createdAt,value
2019-04-16T00:00:21.338Z,94.20
2019-04-16T00:02:54.068Z,94.30
2019-04-16T00:05:28.615Z,94.40
2019-04-16T00:08:26.555Z,94.30
2019-04-16T00:11:09.359Z,94.40
2019-04-16T00:13:49.559Z,94.40
2019-04-16T00:16:19.160Z,94.30
2019-04-16T00:18:57.271Z,94.40
2019-04-16T00:21:38.396Z,94.40
2019-04-16T00:24:26.023Z,94.30
2019-04-16T00:26:58.033Z,94.40
2019-04-16T00:29:33.039Z,94.40
2019-04-16T00:32:12.408Z,94.90
2019-04-16T00:34:47.238Z,95.20
2019-04-16T00:37:15.195Z,96.60
2019-04-16T00:39:44.621Z,98.40
2019-04-16T00:42:12.236Z,99.20
2019-04-16T00:44:41.711Z,99.80
2019-04-16T00:47:09.565Z,99.90
2019-04-16T00:49:43.889Z,99.90
2019-04-16T00:52:14.907Z,99.90
2019-04-16T00:54:43.228Z,99.90
2019-04-16T00:57:11.475Z,99.60
2019-04-16T00:59:56.371Z,99.10
2019-04-16T01:02:33.159Z,98.20
2019-04-16T01:05:01.034Z,98.00
2019-04-16T01:07:29.203Z,97.90
2019-04-16T01:10:15.470Z,98.00
2019-04-16T01:12:44.706Z,97.70
2019-04-16T01:15:14.105Z,97.80
2019-04-16T01:17:42.224Z,99.00
2019-04-16T01:20:12.668Z,99.90
2019-04-16T01:22:46.616Z,99.90
2019-04-16T01:25:11.682Z,99.90
2019-04-16T01:27:43.514Z,99.90
2019-04-16T01:30:14.454Z,99.90
2019-04-16T01:33:14.266Z,99.90
2019-04-16T01:35:51.726Z,99.90
2019-04-16T01:38:41.157Z,99.90
2019-04-16T01:41:12.304Z,99.90
2019-04-16T01:43:40.171Z,99.90
2019-04-16T01:46:07.820Z,99.90
2019-04-16T01:48:38.656Z,99.90
2019-04-16T01:51:05.341Z,99.90
2019-04-16T01:53:33.414Z,99.90
2019-04-16T01:56:01.720Z,99.90
2019-04-16T01:58:33.566Z,99.90
2019-04-16T02:00:59.197Z,99.90
2019-04-16T02:03:27.052Z,99.90
2019-04-16T02:05:57.148Z,99.90
2019-04-16T02:08:28.357Z,99.90
2019-04-16T02:10:57.716Z,99.90
2019-04-16T02:13:25.424Z,99.90
2019-04-16T02:15:53.550Z,99.90
2019-04-16T02:18:22.468Z,99.90
2019-04-16T02:20:50.231Z,99.90
2019-04-16T02:23:18.186Z,99.90
2019-04-16T02:25:48.474Z,99.90
2019-04-16T02:28:15.534Z,99.90
2019-04-16T02:30:43.369Z,99.90
2019-04-16T02:33:54.235Z,99.90
2019-04-16T02:36:44.938Z,99.90
2019-04-16T02:39:13.377Z,99.90
2019-04-16T02:41:41.294Z,99.90
2019-04-16T02:44:14.258Z,99.90
2019-04-16T02:46:39.206Z,99.90
2019-04-16T02:49:08.302Z,99.90
2019-04-16T02:52:00.852Z,99.90
2019-04-16T02:54:37.512Z,99.90
2019-04-16T02:57:27.990Z,99.90
2019-04-16T02:59:57.893Z,99.90
2019-04-16T03:02:43.344Z,99.90
2019-04-16T03:05:29.842Z,99.90
2019-04-16T03:08:01.422Z,99.90
2019-04-16T03:10:30.282Z,99.90
2019-04-16T03:12:57.998Z,99.90
2019-04-16T03:15:44.857Z,99.90
2019-04-16T03:18:16.502Z,99.90
2019-04-16T03:20:44.172Z,99.90
2019-04-16T03:23:12.703Z,99.90
2019-04-16T03:25:41.357Z,99.90
2019-04-16T03:28:10.125Z,99.90
2019-04-16T03:30:42.085Z,99.90
2019-04-16T03:33:12.350Z,99.90
2019-04-16T03:35:38.823Z,99.90
2019-04-16T03:38:07.733Z,99.90
2019-04-16T03:40:35.758Z,99.90
2019-04-16T03:43:04.805Z,99.90
2019-04-16T03:45:34.436Z,99.90
2019-04-16T03:48:02.124Z,99.90
2019-04-16T03:50:32.235Z,99.90
2019-04-16T03:53:00.134Z,99.90
2019-04-16T03:55:27.816Z,99.90
2019-04-16T03:57:55.536Z,99.90
2019-04-16T04:00:23.255Z,99.90
2019-04-16T04:02:55.059Z,99.90
2019-04-16T04:05:21.936Z,99.90
2019-04-16T04:07:49.640Z,99.90
2019-04-16T04:10:29.574Z,99.90
2019-04-16T04:12:46.955Z,99.90
2019-04-16T04:15:17.801Z,99.90
2019-04-16T04:17:46.097Z,99.90
2019-04-16T04:20:18.448Z,99.90
2019-04-16T04:22:46.342Z,99.90
2019-04-16T04:25:26.542Z,99.90
2019-04-16T04:27:55.964Z,99.90
2019-04-16T04:30:25.625Z,99.90
2019-04-16T04:32:56.011Z,99.90
2019-04-16T04:35:30.314Z,99.90
2019-04-16T04:38:00.840Z,99.90
2019-04-16T04:40:27.479Z,99.90
2019-04-16T04:43:00.919Z,99.90
2019-04-16T04:45:33.948Z,99.90
2019-04-16T04:48:06.151Z,99.90
2019-04-16T04:50:36.074Z,99.90
2019-04-16T04:53:06.594Z,99.90
2019-04-16T04:55:35.577Z,99.90
2019-04-16T04:58:03.468Z,99.90
2019-04-16T05:00:32.172Z,99.90
2019-04-16T05:03:06.899Z,99.90
2019-04-16T05:05:40.165Z,99.90
2019-04-16T05:08:14.347Z,99.90
2019-04-16T05:10:48.197Z,99.90
2019-04-16T05:13:17.585Z,99.90
2019-04-16T05:15:46.909Z,99.90
2019-04-16T05:18:18.708Z,99.90
2019-04-16T05:20:54.484Z,99.90
2019-04-16T05:30:24.506Z,99.90
2019-04-16T05:33:11.720Z,99.90
2019-04-16T05:35:41.569Z,99.90
2019-04-16T05:38:09.599Z,99.90
2019-04-16T05:40:40.161Z,99.90
2019-04-16T05:43:07.782Z,99.90
2019-04-16T05:45:37.699Z,99.90
2019-04-16T05:48:09.788Z,99.90
2019-04-16T05:57:44.457Z,99.90
2019-04-16T06:00:28.651Z,99.90
2019-04-16T06:03:02.479Z,99.90
2019-04-16T06:05:32.419Z,99.90
2019-04-16T06:08:25.059Z,99.90
2019-04-16T06:10:49.971Z,99.90
2019-04-16T06:14:19.563Z,99.90
2019-04-16T06:17:35.161Z,99.90
2019-04-16T06:20:30.863Z,99.90
2019-04-16T06:23:24.408Z,99.90
2019-04-16T06:26:44.355Z,99.90
2019-04-16T06:30:09.083Z,99.90
2019-04-16T06:32:49.048Z,99.90
2019-04-16T06:35:43.434Z,99.90
2019-04-16T06:38:33.545Z,99.90
2019-04-16T06:41:06.573Z,99.90
2019-04-16T06:43:40.574Z,99.90
2019-04-16T06:46:49.717Z,99.90
2019-04-16T06:49:51.178Z,99.90
2019-04-16T06:52:54.648Z,99.90
2019-04-16T06:55:36.257Z,99.90
2019-04-16T06:58:21.826Z,99.90
2019-04-16T07:01:15.479Z,99.90
2019-04-16T07:03:58.217Z,99.90
2019-04-16T07:11:17.077Z,99.90
2019-04-16T07:13:46.541Z,99.90
2019-04-16T07:16:17.582Z,98.00
2019-04-16T07:19:17.322Z,97.90
2019-04-16T07:22:07.573Z,96.90
2019-04-16T07:24:57.605Z,95.20
2019-04-16T07:27:58.608Z,94.10
2019-04-16T07:35:00.525Z,92.70
2019-04-16T07:38:11.698Z,90.20
2019-04-16T07:41:10.772Z,85.50
2019-04-16T07:43:54.987Z,86.10
2019-04-16T07:46:56.944Z,82.50
2019-04-16T07:49:55.928Z,82.90
2019-04-16T07:52:58.822Z,80.40
2019-04-16T07:55:52.259Z,78.70
2019-04-16T07:59:01.261Z,78.00
2019-04-16T08:01:27.927Z,80.40
2019-04-16T08:04:40.243Z,80.50
2019-04-16T08:12:22.304Z,79.70
2019-04-16T08:15:12.450Z,79.30
2019-04-16T08:25:07.318Z,81.70
2019-04-16T08:27:35.178Z,78.80
2019-04-16T08:30:13.468Z,76.00
2019-04-16T08:33:16.878Z,74.30
2019-04-16T08:36:37.070Z,71.70
2019-04-16T08:39:49.092Z,70.70
2019-04-16T08:42:17.777Z,69.20
2019-04-16T08:44:49.495Z,68.60
2019-04-16T08:47:24.681Z,65.60
2019-04-16T08:50:11.757Z,65.00
2019-04-16T08:53:06.422Z,63.90
2019-04-16T08:55:35.052Z,63.10
2019-04-16T08:58:06.042Z,62.20
2019-04-16T09:00:48.841Z,63.20
2019-04-16T09:03:31.803Z,61.40
2019-04-16T09:06:13.502Z,62.10
2019-04-16T09:09:24.352Z,57.70
2019-04-16T09:11:56.116Z,58.70
2019-04-16T09:14:26.615Z,56.90
2019-04-16T09:17:10.952Z,59.60
2019-04-16T09:19:41.827Z,57.50
2019-04-16T09:22:16.803Z,55.20
2019-04-16T09:25:13.989Z,56.50
2019-04-16T09:31:06.211Z,58.70
2019-04-16T09:34:08.830Z,60.50
2019-04-16T09:37:01.883Z,61.60
2019-04-16T09:40:17.768Z,61.90
2019-04-16T09:42:48.996Z,62.60
2019-04-16T09:45:40.302Z,63.40
2019-04-16T09:48:15.986Z,63.20
2019-04-16T09:50:48.046Z,63.20
2019-04-16T09:53:51.887Z,62.60
2019-04-16T09:56:43.594Z,63.20
2019-04-16T09:59:39.784Z,63.10
2019-04-16T10:02:54.921Z,62.70
2019-04-16T10:05:41.734Z,62.40
2019-04-16T10:08:17.381Z,63.40
2019-04-16T10:11:11.330Z,59.40
2019-04-16T10:14:51.094Z,58.80
2019-04-16T10:17:27.161Z,63.10
2019-04-16T10:20:12.122Z,61.80
2019-04-16T10:23:08.635Z,59.10
2019-04-16T10:26:47.631Z,58.60
2019-04-16T10:30:15.099Z,59.40
2019-04-16T10:32:44.900Z,58.70
2019-04-16T10:35:16.143Z,58.50
2019-04-16T10:41:30.659Z,57.80
2019-04-16T10:47:12.203Z,58.20
2019-04-16T10:50:00.818Z,57.70
2019-04-16T10:59:01.828Z,55.70
2019-04-16T11:05:15.366Z,56.50
2019-04-16T11:07:45.567Z,56.50
2019-04-16T11:10:36.499Z,55.80
2019-04-16T11:14:00.527Z,55.60
2019-04-16T11:16:45.414Z,54.40
2019-04-16T11:29:47.124Z,54.90
2019-04-16T11:32:53.320Z,55.40
2019-04-16T11:35:23.037Z,55.10
2019-04-16T11:38:09.117Z,55.40
2019-04-16T11:40:40.871Z,55.30
2019-04-16T11:43:08.220Z,55.10
2019-04-16T11:45:38.118Z,54.50
2019-04-16T11:48:06.127Z,54.80
2019-04-16T11:50:54.046Z,54.70
2019-04-16T11:53:35.737Z,54.50
2019-04-16T11:56:50.206Z,54.70
2019-04-16T11:59:18.518Z,54.20
2019-04-16T12:02:13.859Z,54.50
2019-04-16T12:05:22.174Z,54.30
2019-04-16T12:08:28.666Z,54.50
2019-04-16T12:11:14.661Z,54.20
2019-04-16T12:14:10.425Z,54.90
2019-04-16T12:17:18.607Z,54.50
2019-04-16T12:20:29.037Z,54.30
2019-04-16T12:30:46.509Z,54.50
2019-04-16T12:33:29.588Z,53.90
2019-04-16T12:36:06.274Z,54.00
2019-04-16T12:38:41.574Z,53.70
2019-04-16T12:41:54.480Z,53.00
2019-04-16T12:45:02.776Z,53.30
2019-04-16T12:48:40.710Z,54.10
2019-04-16T12:55:35.767Z,54.40
2019-04-16T12:58:37.827Z,54.70
2019-04-16T13:02:02.079Z,55.00
2019-04-16T13:05:21.800Z,54.20
2019-04-16T13:08:38.822Z,55.20
2019-04-16T13:11:38.724Z,54.50
2019-04-16T13:14:22.373Z,53.90
2019-04-16T13:17:02.118Z,54.30
2019-04-16T13:24:02.216Z,54.20
2019-04-16T13:26:52.887Z,53.80
2019-04-16T13:29:29.204Z,53.50
2019-04-16T13:31:56.128Z,53.60
2019-04-16T13:34:25.771Z,53.70
2019-04-16T13:36:59.151Z,53.80
2019-04-16T13:39:45.929Z,53.70
2019-04-16T13:42:13.800Z,53.60
2019-04-16T13:45:18.065Z,53.50
2019-04-16T13:48:43.510Z,53.30
2019-04-16T13:52:02.141Z,53.30
2019-04-16T13:55:08.412Z,52.60
2019-04-16T13:58:14.316Z,52.70
2019-04-16T14:01:08.885Z,52.60
2019-04-16T14:03:56.310Z,52.00
2019-04-16T14:06:27.026Z,51.90
2019-04-16T14:10:04.715Z,52.90
2019-04-16T14:16:01.417Z,52.40
2019-04-16T14:19:49.696Z,52.30
2019-04-16T14:23:07.930Z,52.30
2019-04-16T14:26:02.883Z,52.10
2019-04-16T14:28:52.342Z,52.00
2019-04-16T14:31:22.908Z,51.40
2019-04-16T14:34:57.080Z,52.00
2019-04-16T14:38:04.396Z,51.60
2019-04-16T14:44:17.091Z,51.40
2019-04-16T14:47:49.961Z,50.80
2019-04-16T14:51:13.678Z,51.80
2019-04-16T14:54:38.416Z,51.00
2019-04-16T14:57:10.995Z,51.10
2019-04-16T15:00:00.319Z,51.00
2019-04-16T15:02:42.097Z,51.00
2019-04-16T15:05:34.806Z,51.20
2019-04-16T15:12:45.195Z,50.50
2019-04-16T15:15:20.652Z,51.00
2019-04-16T15:18:04.112Z,50.50
2019-04-16T15:20:55.096Z,50.10
2019-04-16T15:24:11.189Z,50.10
2019-04-16T15:27:12.909Z,50.20
2019-04-16T15:30:45.471Z,49.80
2019-04-16T15:34:09.851Z,49.60
2019-04-16T15:40:32.688Z,49.70
2019-04-16T15:44:09.781Z,50.00
2019-04-16T15:47:24.221Z,50.60
2019-04-16T15:50:24.449Z,50.50
2019-04-16T15:53:05.175Z,50.30
2019-04-16T15:55:56.368Z,50.30
2019-04-16T15:59:14.758Z,50.60
2019-04-16T16:02:45.173Z,50.60
2019-04-16T16:05:19.729Z,50.70
2019-04-16T16:07:57.906Z,50.90
2019-04-16T16:10:34.386Z,50.60
2019-04-16T16:13:06.373Z,50.60
2019-04-16T16:15:34.208Z,50.50
2019-04-16T16:18:16.435Z,50.20
2019-04-16T16:21:34.640Z,50.30
2019-04-16T16:24:07.947Z,50.30
2019-04-16T16:26:54.594Z,50.30
2019-04-16T16:29:23.327Z,50.80
2019-04-16T16:31:52.877Z,50.60
2019-04-16T16:34:21.729Z,50.70
2019-04-16T16:37:09.008Z,50.70
2019-04-16T16:40:15.203Z,50.70
2019-04-16T16:47:58.855Z,50.40
2019-04-16T16:50:51.544Z,50.20
2019-04-16T16:54:17.858Z,50.40
2019-04-16T17:00:43.908Z,50.60
2019-04-16T17:04:07.023Z,50.50
2019-04-16T17:06:58.151Z,50.80
2019-04-16T17:09:47.235Z,50.60
2019-04-16T17:12:26.974Z,51.10
2019-04-16T17:16:02.101Z,51.20
2019-04-16T17:18:35.977Z,50.90
2019-04-16T17:21:06.868Z,51.10
2019-04-16T17:23:47.989Z,51.40
2019-04-16T17:26:24.337Z,51.40
2019-04-16T17:28:59.996Z,51.70
2019-04-16T17:31:30.010Z,52.00
2019-04-16T17:34:07.172Z,52.20
2019-04-16T17:36:41.327Z,52.40
2019-04-16T17:39:17.787Z,52.90
2019-04-16T17:42:00.860Z,53.00
2019-04-16T17:44:49.791Z,53.10
2019-04-16T17:47:36.655Z,53.10
2019-04-16T17:50:17.507Z,53.40
2019-04-16T17:53:32.353Z,53.40
2019-04-16T17:56:51.965Z,53.50
2019-04-16T17:59:49.459Z,53.80
2019-04-16T18:05:51.467Z,54.20
2019-04-16T18:08:48.722Z,54.50
2019-04-16T18:11:30.403Z,54.40
2019-04-16T18:14:18.823Z,54.50
2019-04-16T18:17:07.838Z,54.50
2019-04-16T18:19:58.567Z,54.80
2019-04-16T18:22:48.673Z,54.90
2019-04-16T18:26:21.265Z,55.20
2019-04-16T18:28:49.766Z,55.40
2019-04-16T18:35:28.209Z,56.20
2019-04-16T18:42:19.053Z,57.00
2019-04-16T18:45:40.089Z,57.50
2019-04-16T18:48:17.715Z,58.00
2019-04-16T18:50:48.835Z,58.20
2019-04-16T18:53:26.334Z,58.10
2019-04-16T18:56:02.731Z,58.30
2019-04-16T19:01:56.025Z,58.70
2019-04-16T19:04:50.937Z,58.60
2019-04-16T19:07:21.271Z,58.80
2019-04-16T19:09:52.472Z,59.00
2019-04-16T19:12:25.196Z,59.10
2019-04-16T19:14:57.749Z,59.50
2019-04-16T19:17:31.154Z,59.80
2019-04-16T19:20:25.768Z,60.10
2019-04-16T19:26:49.212Z,59.70
2019-04-16T19:29:45.475Z,59.90
2019-04-16T19:33:18.134Z,60.10
2019-04-16T19:36:49.792Z,60.40
2019-04-16T19:39:25.616Z,61.20
2019-04-16T19:42:21.263Z,61.70
2019-04-16T19:45:05.277Z,61.90
2019-04-16T19:47:47.278Z,62.60
2019-04-16T19:53:51.433Z,62.70
2019-04-16T19:56:51.130Z,63.20
2019-04-16T19:59:22.469Z,63.70
2019-04-16T20:02:00.221Z,65.30
2019-04-16T20:04:30.925Z,65.00
2019-04-16T20:07:04.482Z,65.40
2019-04-16T20:09:49.364Z,65.80
2019-04-16T20:12:17.516Z,66.30
2019-04-16T20:14:58.993Z,67.30
2019-04-16T20:17:28.101Z,67.10
2019-04-16T20:20:23.632Z,68.10
2019-04-16T20:22:54.398Z,68.30
2019-04-16T20:25:24.274Z,69.20
2019-04-16T20:27:57.709Z,69.60
2019-04-16T20:30:38.432Z,69.90
2019-04-16T20:33:17.095Z,69.60
2019-04-16T20:35:50.296Z,69.60
2019-04-16T20:38:37.386Z,70.20
2019-04-16T20:41:05.966Z,70.30
2019-04-16T20:43:35.740Z,70.70
2019-04-16T20:46:03.694Z,70.40
2019-04-16T20:55:33.692Z,74.70
2019-04-16T20:58:01.451Z,74.80
2019-04-16T21:00:33.546Z,76.60
2019-04-16T21:03:21.867Z,77.20
2019-04-16T21:05:39.906Z,80.30
2019-04-16T21:08:07.671Z,80.60
2019-04-16T21:10:38.929Z,80.80
2019-04-16T21:13:09.598Z,81.30
2019-04-16T21:15:42.211Z,82.10
2019-04-16T21:18:16.856Z,82.50
2019-04-16T21:20:51.213Z,84.70
2019-04-16T21:23:21.806Z,85.70
2019-04-16T21:25:52.535Z,86.70
2019-04-16T21:28:35.501Z,87.60
2019-04-16T21:31:20.252Z,88.30
2019-04-16T21:34:06.814Z,88.90
2019-04-16T21:36:45.604Z,89.10
2019-04-16T21:39:41.883Z,90.80
2019-04-16T21:42:13.492Z,91.40
2019-04-16T21:44:48.278Z,92.50
2019-04-16T21:47:22.899Z,93.50
2019-04-16T21:49:50.375Z,93.90
2019-04-16T21:52:18.310Z,93.90
2019-04-16T21:54:51.289Z,94.00
2019-04-16T21:57:22.626Z,94.10
2019-04-16T21:59:58.217Z,94.10
2019-04-16T22:02:34.621Z,94.10
2019-04-16T22:05:03.093Z,94.50
2019-04-16T22:07:34.077Z,94.20
2019-04-16T22:10:02.203Z,94.90
2019-04-16T22:12:33.464Z,94.80
2019-04-16T22:15:02.305Z,94.70
2019-04-16T22:17:35.449Z,96.60
2019-04-16T22:20:03.865Z,96.80
2019-04-16T22:22:30.473Z,96.10
2019-04-16T22:24:58.188Z,95.00
2019-04-16T22:27:26.033Z,94.80
2019-04-16T22:29:59.119Z,95.10
2019-04-16T22:32:30.972Z,95.70
2019-04-16T22:34:58.907Z,95.80
2019-04-16T22:37:26.758Z,97.10
2019-04-16T22:40:32.582Z,96.90
2019-04-16T22:43:12.726Z,96.20
2019-04-16T22:45:52.729Z,95.90
2019-04-16T22:48:23.582Z,95.90
2019-04-16T22:50:56.694Z,97.20
2019-04-16T22:53:25.676Z,96.70
2019-04-16T22:55:56.326Z,96.60
2019-04-16T22:58:27.700Z,96.80
2019-04-16T23:01:07.168Z,96.80
2019-04-16T23:03:36.141Z,97.00
2019-04-16T23:06:05.865Z,96.10
2019-04-16T23:08:35.666Z,96.90
2019-04-16T23:11:06.414Z,95.10
2019-04-16T23:13:38.723Z,96.70
2019-04-16T23:16:10.067Z,96.10
2019-04-16T23:18:37.696Z,97.00
2019-04-16T23:21:10.675Z,97.10
2019-04-16T23:23:39.755Z,97.00
2019-04-16T23:26:07.865Z,96.70
2019-04-16T23:28:35.599Z,96.60
2019-04-16T23:31:03.934Z,96.60
2019-04-16T23:33:32.877Z,97.10
2019-04-16T23:36:03.889Z,97.60
2019-04-16T23:38:33.551Z,97.80
2019-04-16T23:41:01.262Z,98.30
2019-04-16T23:43:44.744Z,98.50
2019-04-16T23:46:28.706Z,98.60
2019-04-16T23:49:31.082Z,98.40
2019-04-16T23:52:07.295Z,98.30
2019-04-16T23:54:40.685Z,98.10
2019-04-16T23:57:25.557Z,98.10
